createdAt,value
2023-05-02T00:00:45.439Z,13.80
2023-05-02T00:03:12.798Z,13.70
2023-05-02T00:05:40.622Z,13.70
2023-05-02T00:08:07.242Z,13.60
2023-05-02T00:10:34.298Z,13.60
2023-05-02T00:13:00.871Z,13.50
2023-05-02T00:15:27.550Z,13.50
2023-05-02T00:17:54.192Z,13.40
2023-05-02T00:20:20.930Z,13.30
2023-05-02T00:22:47.517Z,13.30
2023-05-02T00:25:16.205Z,13.20
2023-05-02T00:27:43.985Z,13.20
2023-05-02T00:30:10.915Z,13.10
2023-05-02T00:32:38.086Z,13.10
2023-05-02T00:35:05.210Z,13.10
2023-05-02T00:37:32.054Z,13.00
2023-05-02T00:39:58.845Z,13.00
2023-05-02T00:42:25.746Z,13.00
2023-05-02T00:44:52.307Z,13.00
2023-05-02T00:47:18.973Z,12.90
2023-05-02T00:49:45.527Z,12.90
2023-05-02T00:52:12.200Z,12.90
2023-05-02T00:54:41.820Z,12.90
2023-05-02T00:57:08.633Z,12.90
2023-05-02T00:59:36.911Z,12.90
2023-05-02T01:02:32.269Z,12.80
2023-05-02T01:05:21.011Z,12.80
2023-05-02T01:08:20.174Z,12.80
2023-05-02T01:10:53.030Z,12.70
2023-05-02T01:13:22.963Z,12.70
2023-05-02T01:15:53.182Z,12.70
2023-05-02T01:18:25.307Z,12.70
2023-05-02T01:21:12.095Z,12.70
2023-05-02T01:24:02.898Z,12.70
2023-05-02T01:27:04.986Z,12.70
2023-05-02T01:29:32.200Z,12.60
2023-05-02T01:32:00.758Z,12.60
2023-05-02T01:34:29.692Z,12.60
2023-05-02T01:36:59.346Z,12.60
2023-05-02T01:39:26.758Z,12.60
2023-05-02T01:41:56.583Z,12.60
2023-05-02T01:44:25.422Z,12.60
2023-05-02T01:46:54.911Z,12.60
2023-05-02T01:49:23.905Z,12.60
2023-05-02T01:51:51.545Z,12.60
2023-05-02T01:54:21.271Z,12.50
2023-05-02T01:56:49.276Z,12.50
2023-05-02T01:59:19.739Z,12.40
2023-05-02T02:01:48.243Z,12.50
2023-05-02T02:04:16.520Z,12.40
2023-05-02T02:06:48.526Z,12.30
2023-05-02T02:09:15.495Z,12.30
2023-05-02T02:11:53.793Z,12.30
2023-05-02T02:14:23.949Z,12.40
2023-05-02T02:16:55.186Z,12.40
2023-05-02T02:19:23.019Z,12.40
2023-05-02T02:21:51.472Z,12.40
2023-05-02T02:24:20.970Z,12.40
2023-05-02T02:26:47.587Z,12.40
2023-05-02T02:29:14.200Z,12.40
2023-05-02T02:31:40.903Z,12.30
2023-05-02T02:34:07.689Z,12.30
2023-05-02T02:37:09.219Z,12.20
2023-05-02T02:39:55.150Z,12.20
2023-05-02T02:42:49.602Z,12.20
2023-05-02T02:45:25.350Z,12.10
2023-05-02T02:48:11.122Z,12.10
2023-05-02T02:51:13.996Z,12.00
2023-05-02T02:54:23.028Z,12.10
2023-05-02T02:57:02.607Z,12.00
2023-05-02T02:59:35.100Z,11.90
2023-05-02T03:02:08.186Z,11.80
2023-05-02T03:04:38.695Z,12.70
2023-05-02T03:07:05.441Z,11.70
2023-05-02T03:09:46.597Z,11.60
2023-05-02T03:12:13.384Z,11.60
2023-05-02T03:14:41.056Z,11.50
2023-05-02T03:17:08.556Z,11.50
2023-05-02T03:19:35.898Z,11.40
2023-05-02T03:22:02.644Z,11.40
2023-05-02T03:24:29.730Z,11.40
2023-05-02T03:26:57.087Z,11.50
2023-05-02T03:29:24.511Z,11.30
2023-05-02T03:31:51.402Z,11.20
2023-05-02T03:34:19.696Z,11.20
2023-05-02T03:36:46.261Z,11.10
2023-05-02T03:39:12.897Z,11.00
2023-05-02T03:41:39.817Z,10.90
2023-05-02T03:44:07.020Z,10.90
2023-05-02T03:46:33.739Z,10.80
2023-05-02T03:49:00.338Z,10.80
2023-05-02T03:51:26.961Z,10.80
2023-05-02T03:53:53.559Z,10.70
2023-05-02T03:56:20.701Z,10.70
2023-05-02T03:58:48.972Z,10.80
2023-05-02T04:01:16.712Z,10.90
2023-05-02T04:03:43.780Z,11.00
2023-05-02T04:06:10.811Z,11.00
2023-05-02T04:08:37.647Z,11.00
2023-05-02T04:11:04.439Z,11.00
2023-05-02T04:13:31.007Z,11.00
2023-05-02T04:15:57.613Z,11.00
2023-05-02T04:18:24.263Z,11.10
2023-05-02T04:20:50.927Z,11.00
2023-05-02T04:23:17.692Z,11.00
2023-05-02T04:25:54.317Z,11.00
2023-05-02T04:28:22.090Z,10.90
2023-05-02T04:30:49.781Z,10.90
2023-05-02T04:33:19.460Z,10.90
2023-05-02T04:35:46.164Z,10.90
2023-05-02T04:38:14.438Z,11.00
2023-05-02T04:40:41.424Z,11.00
2023-05-02T04:43:07.996Z,11.10
2023-05-02T04:45:37.681Z,11.20
2023-05-02T04:48:04.972Z,11.40
2023-05-02T04:50:32.244Z,11.30
2023-05-02T04:52:59.376Z,11.40
2023-05-02T04:55:26.245Z,11.40
2023-05-02T04:57:52.865Z,11.40
2023-05-02T05:00:19.699Z,11.60
2023-05-02T05:02:46.344Z,11.70
2023-05-02T05:05:13.018Z,11.60
2023-05-02T05:07:39.640Z,11.80
2023-05-02T05:10:08.025Z,11.90
2023-05-02T05:12:34.598Z,12.00
2023-05-02T05:15:01.421Z,12.10
2023-05-02T05:17:28.099Z,12.10
2023-05-02T05:19:54.679Z,12.00
2023-05-02T05:22:21.615Z,12.40
2023-05-02T05:24:55.066Z,12.40
2023-05-02T05:27:22.005Z,12.30
2023-05-02T05:29:48.770Z,12.30
2023-05-02T05:32:15.674Z,12.50
2023-05-02T05:34:42.540Z,12.30
2023-05-02T05:37:09.267Z,12.30
2023-05-02T05:39:35.817Z,12.40
2023-05-02T05:42:03.421Z,12.60
2023-05-02T05:44:30.013Z,12.70
2023-05-02T05:46:56.614Z,12.90
2023-05-02T05:49:24.232Z,13.10
2023-05-02T05:51:51.009Z,13.70
2023-05-02T05:54:18.496Z,13.80
2023-05-02T05:56:45.491Z,14.20
2023-05-02T05:59:12.076Z,14.60
2023-05-02T06:01:38.666Z,14.90
2023-05-02T06:04:06.637Z,15.20
2023-05-02T06:06:34.103Z,15.30
2023-05-02T06:09:01.508Z,15.40
2023-05-02T06:11:28.195Z,15.40
2023-05-02T06:13:54.826Z,15.50
2023-05-02T06:16:21.533Z,15.20
2023-05-02T06:18:51.441Z,15.10
2023-05-02T06:21:17.980Z,15.20
2023-05-02T06:23:45.735Z,14.80
2023-05-02T06:26:12.378Z,15.30
2023-05-02T06:28:39.082Z,15.40
2023-05-02T06:31:06.326Z,15.90
2023-05-02T06:33:33.970Z,16.00
2023-05-02T06:36:01.983Z,16.00
2023-05-02T06:38:28.933Z,16.10
2023-05-02T06:40:55.798Z,16.10
2023-05-02T06:43:22.443Z,16.00
2023-05-02T06:45:49.097Z,15.90
2023-05-02T06:48:15.837Z,15.50
2023-05-02T06:50:42.672Z,15.60
2023-05-02T06:53:09.288Z,15.80
2023-05-02T06:55:35.894Z,15.70
2023-05-02T06:58:02.486Z,15.70
2023-05-02T07:00:29.164Z,15.20
2023-05-02T07:02:56.470Z,15.00
2023-05-02T07:05:23.300Z,15.10
2023-05-02T07:07:50.254Z,15.10
2023-05-02T07:10:16.869Z,15.20
2023-05-02T07:12:43.437Z,15.20
2023-05-02T07:15:10.422Z,15.40
2023-05-02T07:17:37.044Z,15.50
2023-05-02T07:20:04.519Z,15.60
2023-05-02T07:22:31.910Z,15.60
2023-05-02T07:25:00.872Z,15.50
2023-05-02T07:27:28.093Z,15.60
2023-05-02T07:29:54.770Z,15.80
2023-05-02T07:32:27.883Z,16.30
2023-05-02T07:34:56.095Z,16.70
2023-05-02T07:37:23.230Z,16.80
2023-05-02T07:39:49.961Z,17.00
2023-05-02T07:42:16.620Z,16.70
2023-05-02T07:44:43.328Z,16.80
2023-05-02T07:47:09.971Z,16.70
2023-05-02T07:49:36.943Z,16.40
2023-05-02T07:52:04.495Z,16.40
2023-05-02T07:54:31.139Z,16.20
2023-05-02T07:57:02.009Z,16.20
2023-05-02T07:59:29.816Z,16.00
2023-05-02T08:01:56.461Z,15.80
2023-05-02T08:04:23.232Z,15.50
2023-05-02T08:06:50.330Z,15.50
2023-05-02T08:09:17.301Z,15.40
2023-05-02T08:11:43.953Z,15.30
2023-05-02T08:14:10.643Z,15.20
2023-05-02T08:16:37.318Z,15.30
2023-05-02T08:19:04.069Z,15.50
2023-05-02T08:21:32.125Z,15.70
2023-05-02T08:23:59.320Z,15.50
2023-05-02T08:26:26.268Z,15.50
2023-05-02T08:28:53.040Z,15.50
2023-05-02T08:31:19.820Z,15.40
2023-05-02T08:33:47.037Z,15.20
2023-05-02T08:36:14.844Z,15.00
2023-05-02T08:38:42.667Z,15.10
2023-05-02T08:41:14.016Z,15.10
2023-05-02T08:43:41.014Z,15.00
2023-05-02T08:46:08.938Z,14.80
2023-05-02T08:48:40.601Z,14.70
2023-05-02T08:51:12.479Z,14.60
2023-05-02T08:53:40.195Z,14.30
2023-05-02T08:56:08.833Z,14.40
2023-05-02T08:58:36.412Z,14.40
2023-05-02T09:01:09.306Z,14.30
2023-05-02T09:03:37.338Z,14.50
2023-05-02T09:06:08.438Z,14.40
2023-05-02T09:08:36.693Z,14.40
2023-05-02T09:11:04.200Z,14.50
2023-05-02T09:13:51.771Z,14.70
2023-05-02T09:16:25.315Z,15.00
2023-05-02T09:18:54.089Z,15.30
2023-05-02T09:21:22.987Z,15.40
2023-05-02T09:23:54.605Z,15.50
2023-05-02T09:26:44.014Z,15.20
2023-05-02T09:29:10.678Z,14.80
2023-05-02T09:34:15.683Z,14.80
2023-05-02T09:36:47.050Z,14.80
2023-05-02T09:39:15.758Z,14.90
2023-05-02T09:41:47.068Z,14.80
2023-05-02T09:44:15.350Z,14.90
2023-05-02T09:46:46.966Z,15.00
2023-05-02T09:49:14.754Z,15.00
2023-05-02T09:51:43.870Z,15.10
2023-05-02T09:54:10.596Z,15.20
2023-05-02T09:56:57.748Z,15.40
2023-05-02T09:59:25.456Z,15.50
2023-05-02T10:02:03.334Z,15.60
2023-05-02T10:04:32.233Z,15.60
2023-05-02T10:06:59.953Z,15.60
2023-05-02T10:09:28.202Z,15.60
2023-05-02T10:11:56.358Z,15.50
2023-05-02T10:14:27.873Z,15.40
2023-05-02T10:17:08.296Z,15.30
2023-05-02T10:20:05.755Z,15.10
2023-05-02T10:22:34.523Z,15.10
2023-05-02T10:25:03.722Z,15.30
2023-05-02T10:27:32.020Z,15.40
2023-05-02T10:30:00.526Z,15.30
2023-05-02T10:32:32.650Z,15.30
2023-05-02T10:35:04.272Z,15.20
2023-05-02T10:37:33.970Z,15.20
2023-05-02T10:40:01.319Z,14.80
2023-05-02T10:42:28.678Z,15.00
2023-05-02T10:44:55.331Z,14.90
2023-05-02T10:47:23.230Z,14.80
2023-05-02T10:49:56.652Z,14.70
2023-05-02T10:52:30.773Z,14.70
2023-05-02T10:55:16.969Z,14.50
2023-05-02T10:57:59.185Z,14.50
2023-05-02T11:00:27.819Z,14.30
2023-05-02T11:02:54.527Z,14.10
2023-05-02T11:05:23.103Z,13.60
2023-05-02T11:07:50.112Z,13.50
2023-05-02T11:10:22.605Z,13.50
2023-05-02T11:12:50.798Z,13.40
2023-05-02T11:15:29.270Z,13.30
2023-05-02T11:18:03.610Z,13.20
2023-05-02T11:20:31.813Z,13.00
2023-05-02T11:23:21.424Z,13.00
2023-05-02T11:25:53.235Z,13.00
2023-05-02T11:28:38.279Z,12.80
2023-05-02T11:31:06.224Z,13.10
2023-05-02T11:33:33.007Z,13.20
2023-05-02T11:35:59.711Z,13.60
2023-05-02T11:38:34.728Z,13.70
2023-05-02T11:41:02.976Z,13.80
2023-05-02T11:43:31.828Z,14.00
2023-05-02T11:46:00.226Z,14.10
2023-05-02T11:48:27.749Z,14.10
2023-05-02T11:50:57.242Z,14.30
2023-05-02T11:53:26.184Z,14.40
2023-05-02T11:55:54.529Z,14.40
2023-05-02T11:58:23.032Z,14.30
2023-05-02T12:00:50.829Z,13.90
2023-05-02T12:03:33.027Z,13.60
2023-05-02T12:06:14.226Z,13.20
2023-05-02T12:08:42.726Z,13.60
2023-05-02T12:11:09.483Z,13.80
2023-05-02T12:13:45.582Z,13.90
2023-05-02T12:16:12.571Z,13.80
2023-05-02T12:18:39.337Z,13.70
2023-05-02T12:21:06.363Z,13.80
2023-05-02T12:23:35.229Z,13.80
2023-05-02T12:26:37.526Z,13.80
2023-05-02T12:29:06.508Z,13.40
2023-05-02T12:31:33.280Z,13.60
2023-05-02T12:34:01.096Z,13.60
2023-05-02T12:36:28.903Z,13.90
2023-05-02T12:38:59.218Z,12.50
2023-05-02T12:41:35.384Z,14.20
2023-05-02T12:44:02.863Z,14.20
2023-05-02T12:46:31.429Z,14.30
2023-05-02T12:49:09.548Z,14.10
2023-05-02T12:51:37.107Z,14.20
2023-05-02T12:54:04.791Z,14.20
2023-05-02T12:56:39.371Z,14.30
2023-05-02T12:59:06.210Z,14.50
2023-05-02T13:01:33.931Z,14.30
2023-05-02T13:04:00.691Z,14.30
2023-05-02T13:06:27.742Z,14.10
2023-05-02T13:08:54.328Z,14.10
2023-05-02T13:11:20.988Z,14.10
2023-05-02T13:13:47.609Z,13.90
2023-05-02T13:16:14.382Z,14.10
2023-05-02T13:18:41.441Z,14.20
2023-05-02T13:21:08.106Z,13.90
2023-05-02T13:23:34.812Z,13.80
2023-05-02T13:26:01.459Z,14.00
2023-05-02T13:28:30.352Z,14.10
2023-05-02T13:30:57.035Z,14.10
2023-05-02T13:33:23.686Z,13.50
2023-05-02T13:35:50.311Z,13.50
2023-05-02T13:38:16.896Z,13.50
2023-05-02T13:40:43.488Z,13.30
2023-05-02T13:43:10.053Z,13.10
2023-05-02T13:45:36.774Z,13.30
2023-05-02T13:48:03.668Z,13.00
2023-05-02T13:50:30.562Z,13.40
2023-05-02T13:52:57.110Z,13.20
2023-05-02T13:55:23.703Z,13.50
2023-05-02T13:57:50.444Z,13.20
2023-05-02T14:00:17.777Z,13.60
2023-05-02T14:02:46.878Z,13.80
2023-05-02T14:05:13.604Z,13.40
2023-05-02T14:07:40.275Z,13.30
2023-05-02T14:10:07.842Z,13.20
2023-05-02T14:12:34.755Z,13.50
2023-05-02T14:15:03.357Z,13.10
2023-05-02T14:17:31.691Z,13.00
2023-05-02T14:19:58.474Z,12.60
2023-05-02T14:22:25.137Z,13.00
2023-05-02T14:24:51.948Z,13.20
2023-05-02T14:27:18.602Z,13.00
2023-05-02T14:29:49.195Z,12.80
2023-05-02T14:32:16.049Z,12.40
2023-05-02T14:34:42.749Z,12.40
2023-05-02T14:37:09.453Z,12.40
2023-05-02T14:39:36.943Z,12.50
2023-05-02T14:42:04.559Z,12.70
2023-05-02T14:44:31.646Z,12.70
2023-05-02T14:46:58.310Z,12.30
2023-05-02T14:49:25.577Z,12.20
2023-05-02T14:51:52.689Z,12.30
2023-05-02T14:54:20.305Z,12.30
2023-05-02T14:56:48.479Z,12.20
2023-05-02T14:59:15.451Z,12.10
2023-05-02T15:01:42.158Z,11.90
2023-05-02T15:04:09.024Z,12.10
2023-05-02T15:06:36.788Z,12.10
2023-05-02T15:09:04.743Z,12.20
2023-05-02T15:11:31.651Z,12.20
2023-05-02T15:13:59.533Z,12.30
2023-05-02T15:16:29.752Z,12.20
2023-05-02T15:18:56.530Z,12.20
2023-05-02T15:21:23.260Z,12.10
2023-05-02T15:23:49.922Z,12.00
2023-05-02T15:26:16.645Z,12.00
2023-05-02T15:28:43.916Z,11.90
2023-05-02T15:31:10.649Z,12.00
2023-05-02T15:33:37.835Z,12.00
2023-05-02T15:36:04.797Z,11.90
2023-05-02T15:38:31.379Z,12.00
2023-05-02T15:40:59.739Z,12.10
2023-05-02T15:43:27.097Z,12.00
2023-05-02T15:45:56.357Z,12.10
2023-05-02T15:48:26.759Z,12.10
2023-05-02T15:50:56.405Z,12.20
2023-05-02T15:53:23.624Z,12.20
2023-05-02T15:55:52.598Z,12.10
2023-05-02T15:58:19.774Z,12.10
2023-05-02T16:00:51.786Z,12.20
2023-05-02T16:03:18.586Z,12.10
2023-05-02T16:05:46.368Z,12.10
2023-05-02T16:08:13.114Z,12.10
2023-05-02T16:10:40.317Z,12.10
2023-05-02T16:13:07.082Z,12.30
2023-05-02T16:15:33.809Z,10.90
2023-05-02T16:18:00.429Z,12.30
2023-05-02T16:20:28.858Z,12.30
2023-05-02T16:22:55.588Z,12.20
2023-05-02T16:25:22.167Z,12.30
2023-05-02T16:27:48.907Z,12.20
2023-05-02T16:30:16.117Z,12.20
2023-05-02T16:32:43.079Z,12.30
2023-05-02T16:35:13.556Z,12.30
2023-05-02T16:37:41.289Z,12.40
2023-05-02T16:40:09.171Z,12.30
2023-05-02T16:42:36.150Z,12.40
2023-05-02T16:45:03.500Z,12.50
2023-05-02T16:47:30.066Z,12.40
2023-05-02T16:49:58.432Z,12.30
2023-05-02T16:52:26.240Z,12.30
2023-05-02T16:54:53.181Z,12.20
2023-05-02T16:57:21.177Z,12.20
2023-05-02T16:59:49.535Z,12.10
2023-05-02T17:02:16.949Z,12.00
2023-05-02T17:04:44.027Z,12.00
2023-05-02T17:07:12.214Z,12.10
2023-05-02T17:09:39.799Z,12.20
2023-05-02T17:12:07.352Z,12.10
2023-05-02T17:14:34.169Z,12.20
2023-05-02T17:17:01.728Z,12.10
2023-05-02T17:19:28.816Z,12.20
2023-05-02T17:21:57.988Z,12.10
2023-05-02T17:24:25.018Z,12.20
2023-05-02T17:26:52.187Z,12.20
2023-05-02T17:29:18.854Z,12.20
2023-05-02T17:31:45.693Z,12.20
2023-05-02T17:34:12.537Z,12.10
2023-05-02T17:36:41.904Z,12.10
2023-05-02T17:39:09.535Z,12.00
2023-05-02T17:41:37.100Z,11.80
2023-05-02T17:44:05.051Z,11.80
2023-05-02T17:46:32.592Z,11.60
2023-05-02T17:49:00.687Z,11.60
2023-05-02T17:51:27.621Z,11.50
2023-05-02T17:53:54.492Z,11.40
2023-05-02T17:56:24.204Z,11.40
2023-05-02T17:58:50.820Z,11.30
2023-05-02T18:01:17.768Z,11.30
2023-05-02T18:03:44.870Z,11.30
2023-05-02T18:06:18.620Z,11.30
2023-05-02T18:08:48.144Z,11.30
2023-05-02T18:11:16.549Z,11.50
2023-05-02T18:13:44.005Z,11.50
2023-05-02T18:16:10.860Z,11.50
2023-05-02T18:18:37.742Z,11.60
2023-05-02T18:21:05.733Z,11.60
2023-05-02T18:23:33.089Z,11.60
2023-05-02T18:25:59.768Z,11.70
2023-05-02T18:28:26.521Z,11.60
2023-05-02T18:30:53.105Z,11.50
2023-05-02T18:33:19.749Z,11.50
2023-05-02T18:35:49.968Z,11.40
2023-05-02T18:38:17.417Z,11.40
2023-05-02T18:40:44.271Z,11.40
2023-05-02T18:43:11.037Z,11.50
2023-05-02T18:45:38.161Z,11.40
2023-05-02T18:48:06.146Z,11.40
2023-05-02T18:50:32.872Z,11.30
2023-05-02T18:52:59.737Z,11.30
2023-05-02T18:55:26.323Z,11.30
2023-05-02T18:57:56.137Z,11.30
2023-05-02T19:00:23.361Z,11.30
2023-05-02T19:02:53.802Z,11.20
2023-05-02T19:05:20.629Z,13.00
2023-05-02T19:07:47.262Z,11.30
2023-05-02T19:10:14.023Z,11.30
2023-05-02T19:12:41.939Z,11.30
2023-05-02T19:15:09.553Z,11.30
2023-05-02T19:17:36.604Z,11.30
2023-05-02T19:20:03.844Z,11.30
2023-05-02T19:22:32.107Z,11.40
2023-05-02T19:24:59.062Z,11.40
2023-05-02T19:27:26.105Z,11.40
2023-05-02T19:29:54.028Z,11.30
2023-05-02T19:32:25.093Z,11.30
2023-05-02T19:34:51.870Z,11.30
2023-05-02T19:37:18.567Z,11.20
2023-05-02T19:39:45.188Z,11.20
2023-05-02T19:42:11.914Z,11.20
2023-05-02T19:44:38.511Z,11.20
2023-05-02T19:47:05.213Z,11.20
2023-05-02T19:49:31.767Z,11.40
2023-05-02T19:51:58.450Z,11.20
2023-05-02T19:54:25.204Z,11.30
2023-05-02T19:56:51.869Z,11.30
2023-05-02T19:59:18.622Z,11.30
2023-05-02T20:01:46.756Z,12.70
2023-05-02T20:04:13.584Z,11.20
2023-05-02T20:06:40.340Z,11.20
2023-05-02T20:09:07.020Z,11.20
2023-05-02T20:11:33.907Z,11.20
2023-05-02T20:14:00.741Z,11.10
2023-05-02T20:16:28.536Z,11.10
2023-05-02T20:18:55.307Z,11.00
2023-05-02T20:21:21.889Z,11.10
2023-05-02T20:23:48.518Z,11.00
2023-05-02T20:26:17.165Z,11.00
2023-05-02T20:28:43.970Z,11.00
2023-05-02T20:31:10.942Z,11.00
2023-05-02T20:33:45.234Z,11.00
2023-05-02T20:36:13.542Z,11.00
2023-05-02T20:38:42.376Z,10.90
2023-05-02T20:41:12.494Z,10.80
2023-05-02T20:43:45.108Z,10.50
2023-05-02T20:46:16.417Z,10.70
2023-05-02T20:48:43.186Z,10.70
2023-05-02T20:51:09.795Z,10.60
2023-05-02T20:53:37.590Z,10.70
2023-05-02T20:56:04.546Z,10.60
2023-05-02T20:58:31.522Z,10.60
2023-05-02T21:00:58.583Z,10.50
2023-05-02T21:03:25.651Z,10.40
2023-05-02T21:05:53.536Z,10.40
2023-05-02T21:08:20.800Z,10.40
2023-05-02T21:10:47.527Z,10.40
2023-05-02T21:13:14.194Z,10.30
2023-05-02T21:15:40.921Z,10.30
2023-05-02T21:18:07.593Z,10.30
2023-05-02T21:20:34.541Z,10.20
2023-05-02T21:23:01.210Z,10.20
2023-05-02T21:25:27.802Z,10.30
2023-05-02T21:27:54.487Z,10.30
2023-05-02T21:30:21.223Z,10.20
2023-05-02T21:32:47.829Z,10.20
2023-05-02T21:35:14.547Z,10.10
2023-05-02T21:37:41.244Z,10.00
2023-05-02T21:40:08.513Z,10.00
2023-05-02T21:42:35.218Z,9.90
2023-05-02T21:45:02.079Z,9.90
2023-05-02T21:47:28.769Z,9.90
2023-05-02T21:49:57.022Z,9.80
2023-05-02T21:52:23.619Z,9.90
2023-05-02T21:54:52.390Z,9.90
2023-05-02T21:57:19.236Z,9.90
2023-05-02T21:59:46.132Z,10.00
2023-05-02T22:02:12.869Z,10.00
2023-05-02T22:04:40.407Z,9.90
2023-05-02T22:07:07.376Z,9.80
2023-05-02T22:09:33.973Z,9.70
2023-05-02T22:12:01.064Z,9.70
2023-05-02T22:14:33.726Z,9.50
2023-05-02T22:17:08.158Z,9.70
2023-05-02T22:19:34.712Z,9.80
2023-05-02T22:22:05.279Z,9.80
2023-05-02T22:24:31.957Z,9.80
2023-05-02T22:26:58.570Z,9.80
2023-05-02T22:29:25.205Z,8.60
2023-05-02T22:31:52.223Z,9.70
2023-05-02T22:34:19.146Z,9.80
2023-05-02T22:36:46.121Z,9.70
2023-05-02T22:39:15.485Z,9.70
2023-05-02T22:41:42.679Z,9.70
2023-05-02T22:44:09.412Z,9.60
2023-05-02T22:46:38.290Z,9.70
2023-05-02T22:49:07.625Z,9.70
2023-05-02T22:51:34.368Z,9.70
2023-05-02T22:54:01.919Z,9.70
2023-05-02T22:56:28.696Z,9.70
2023-05-02T22:58:55.487Z,9.70
2023-05-02T23:01:22.690Z,9.70
2023-05-02T23:03:52.075Z,9.70
2023-05-02T23:06:18.799Z,9.70
2023-05-02T23:08:45.508Z,9.70
2023-05-02T23:11:12.145Z,9.80
2023-05-02T23:13:38.779Z,9.80
2023-05-02T23:16:06.142Z,9.80
2023-05-02T23:18:32.782Z,9.70
2023-05-02T23:20:59.365Z,10.30
2023-05-02T23:23:26.445Z,9.70
2023-05-02T23:25:53.075Z,9.60
2023-05-02T23:28:19.694Z,9.60
2023-05-02T23:30:46.675Z,9.60
2023-05-02T23:33:13.671Z,9.30
2023-05-02T23:35:40.502Z,9.50
2023-05-02T23:38:08.089Z,9.30
2023-05-02T23:40:34.901Z,9.70
2023-05-02T23:43:01.681Z,9.30
2023-05-02T23:45:28.300Z,9.20
2023-05-02T23:47:54.902Z,9.20
2023-05-02T23:50:21.523Z,9.10
2023-05-02T23:52:48.108Z,9.10
2023-05-02T23:55:14.743Z,9.40
2023-05-02T23:57:41.356Z,9.40
